createdAt,value
2019-01-04T00:01:44.695Z,73.50
2019-01-04T00:04:16.085Z,73.70
2019-01-04T00:06:45.141Z,73.70
2019-01-04T00:09:14.444Z,73.80
2019-01-04T00:11:43.589Z,73.80
2019-01-04T00:14:12.645Z,73.90
2019-01-04T00:16:41.705Z,73.80
2019-01-04T00:19:10.748Z,73.90
2019-01-04T00:21:40.080Z,73.80
2019-01-04T00:24:09.123Z,73.90
2019-01-04T00:26:38.177Z,73.90
2019-01-04T00:29:07.220Z,74.10
2019-01-04T00:31:36.385Z,74.30
2019-01-04T00:34:05.448Z,74.40
2019-01-04T00:36:34.520Z,74.40
2019-01-04T00:39:04.100Z,74.60
2019-01-04T00:41:33.181Z,74.60
2019-01-04T00:44:02.223Z,74.80
2019-01-04T00:46:31.287Z,74.80
2019-01-04T00:49:00.336Z,74.90
2019-01-04T00:51:29.400Z,74.80
2019-01-04T00:53:58.701Z,74.90
2019-01-04T00:56:57.313Z,74.80
2019-01-04T01:00:01.203Z,74.90
2019-01-04T01:03:07.904Z,74.70
2019-01-04T01:06:28.591Z,75.20
2019-01-04T01:09:37.801Z,75.10
2019-01-04T01:12:37.597Z,75.20
2019-01-04T01:16:03.586Z,75.40
2019-01-04T01:19:21.048Z,75.80
2019-01-04T01:22:42.278Z,75.70
2019-01-04T01:25:45.962Z,75.70
2019-01-04T01:29:04.240Z,75.90
2019-01-04T01:31:55.255Z,75.70
2019-01-04T01:35:16.617Z,75.80
2019-01-04T01:38:41.525Z,75.90
2019-01-04T01:42:18.713Z,75.90
2019-01-04T01:45:43.580Z,76.00
2019-01-04T01:48:34.295Z,75.80
2019-01-04T01:51:43.833Z,75.60
2019-01-04T01:54:12.816Z,75.60
2019-01-04T01:56:41.865Z,75.90
2019-01-04T01:59:11.193Z,75.80
2019-01-04T02:01:40.224Z,75.70
2019-01-04T02:04:09.291Z,75.70
2019-01-04T02:06:38.575Z,75.40
2019-01-04T02:09:09.145Z,75.30
2019-01-04T02:11:38.443Z,75.30
2019-01-04T02:14:07.497Z,75.20
2019-01-04T02:16:36.485Z,75.20
2019-01-04T02:19:05.800Z,75.10
2019-01-04T02:21:35.270Z,75.20
2019-01-04T02:24:04.585Z,75.10
2019-01-04T02:26:33.566Z,75.00
2019-01-04T02:29:02.661Z,74.90
2019-01-04T02:31:31.978Z,74.90
2019-01-04T02:34:01.003Z,74.80
2019-01-04T02:36:30.030Z,74.80
2019-01-04T02:38:58.936Z,74.80
2019-01-04T02:41:27.955Z,74.80
2019-01-04T02:43:57.006Z,74.80
2019-01-04T02:46:26.451Z,74.60
2019-01-04T02:48:55.445Z,74.80
2019-01-04T02:51:24.697Z,74.70
2019-01-04T02:53:53.677Z,74.90
2019-01-04T02:56:22.696Z,74.90
2019-01-04T02:58:51.735Z,74.80
2019-01-04T03:01:20.836Z,74.70
2019-01-04T03:03:50.069Z,74.80
2019-01-04T03:06:19.106Z,74.90
2019-01-04T03:08:48.054Z,74.80
2019-01-04T03:11:16.936Z,74.80
2019-01-04T03:13:45.978Z,74.80
2019-01-04T03:16:15.210Z,74.90
2019-01-04T03:18:44.236Z,75.60
2019-01-04T03:21:13.205Z,74.90
2019-01-04T03:23:42.144Z,75.00
2019-01-04T03:26:11.377Z,75.10
2019-01-04T03:28:40.344Z,74.90
2019-01-04T03:31:09.659Z,74.90
2019-01-04T03:33:38.598Z,74.90
2019-01-04T03:36:07.641Z,74.90
2019-01-04T03:38:36.587Z,74.90
2019-01-04T03:41:05.893Z,75.00
2019-01-04T03:43:34.843Z,74.90
2019-01-04T03:46:03.823Z,74.80
2019-01-04T03:48:32.708Z,74.80
2019-01-04T03:51:01.769Z,74.80
2019-01-04T03:53:30.772Z,74.80
2019-01-04T03:55:59.746Z,74.70
2019-01-04T03:58:28.685Z,74.70
2019-01-04T04:00:57.674Z,74.60
2019-01-04T04:03:26.576Z,74.60
2019-01-04T04:05:55.811Z,74.70
2019-01-04T04:08:24.692Z,74.60
2019-01-04T04:10:53.853Z,74.60
2019-01-04T04:13:22.806Z,74.60
2019-01-04T04:15:51.863Z,74.70
2019-01-04T04:18:20.827Z,74.60
2019-01-04T04:20:50.149Z,74.70
2019-01-04T04:23:19.180Z,74.80
2019-01-04T04:25:48.080Z,74.80
2019-01-04T04:28:17.296Z,74.70
2019-01-04T04:30:46.362Z,74.60
2019-01-04T04:33:15.376Z,74.60
2019-01-04T04:35:44.281Z,74.60
2019-01-04T04:38:13.560Z,74.60
2019-01-04T04:40:42.460Z,74.50
2019-01-04T04:43:11.366Z,74.50
2019-01-04T04:45:40.321Z,74.40
2019-01-04T04:48:09.329Z,74.30
2019-01-04T04:50:38.350Z,74.30
2019-01-04T04:53:07.402Z,74.20
2019-01-04T04:55:36.361Z,74.10
2019-01-04T04:58:05.346Z,74.00
2019-01-04T05:00:34.379Z,73.90
2019-01-04T05:03:03.365Z,74.50
2019-01-04T05:05:32.397Z,73.70
2019-01-04T05:08:01.374Z,73.70
2019-01-04T05:10:30.332Z,73.70
2019-01-04T05:12:59.238Z,73.50
2019-01-04T05:15:28.184Z,73.60
2019-01-04T05:17:57.169Z,73.70
2019-01-04T05:20:26.316Z,73.70
2019-01-04T05:22:55.373Z,73.70
2019-01-04T05:25:24.404Z,73.60
2019-01-04T05:27:53.382Z,73.60
2019-01-04T05:30:22.269Z,73.60
2019-01-04T05:32:51.222Z,73.50
2019-01-04T05:35:20.238Z,73.70
2019-01-04T05:37:49.133Z,73.60
2019-01-04T05:40:18.180Z,73.60
2019-01-04T05:42:47.060Z,74.20
2019-01-04T05:45:16.120Z,73.50
2019-01-04T05:47:45.154Z,73.50
2019-01-04T05:50:14.315Z,73.60
2019-01-04T05:52:43.514Z,73.50
2019-01-04T05:55:12.662Z,73.60
2019-01-04T05:57:41.618Z,73.50
2019-01-04T06:00:11.173Z,73.30
2019-01-04T06:02:40.087Z,73.30
2019-01-04T06:05:09.189Z,73.30
2019-01-04T06:07:38.148Z,73.20
2019-01-04T06:10:07.696Z,73.10
2019-01-04T06:12:36.754Z,73.10
2019-01-04T06:15:06.349Z,72.90
2019-01-04T06:17:35.390Z,72.80
2019-01-04T06:20:04.808Z,72.80
2019-01-04T06:22:33.683Z,72.80
2019-01-04T06:25:02.800Z,72.70
2019-01-04T06:27:31.726Z,72.80
2019-01-04T06:30:00.751Z,72.70
2019-01-04T06:32:29.794Z,72.80
2019-01-04T06:34:58.844Z,72.60
2019-01-04T06:37:27.808Z,72.60
2019-01-04T06:39:56.822Z,73.20
2019-01-04T06:42:25.877Z,72.60
2019-01-04T06:44:54.916Z,72.70
2019-01-04T06:47:23.960Z,72.50
2019-01-04T06:49:53.216Z,72.60
2019-01-04T06:52:23.139Z,72.50
2019-01-04T06:55:41.964Z,72.90
2019-01-04T06:58:10.993Z,72.80
2019-01-04T07:00:40.109Z,72.70
2019-01-04T07:03:09.079Z,72.60
2019-01-04T07:05:38.120Z,72.70
2019-01-04T07:08:07.213Z,72.60
2019-01-04T07:10:36.182Z,72.50
2019-01-04T07:13:05.236Z,72.50
2019-01-04T07:15:34.300Z,72.30
2019-01-04T07:18:03.582Z,72.30
2019-01-04T07:20:32.462Z,72.30
2019-01-04T07:23:01.598Z,72.30
2019-01-04T07:25:30.545Z,72.30
2019-01-04T07:28:00.025Z,72.20
2019-01-04T07:30:29.049Z,72.20
2019-01-04T07:32:58.092Z,72.10
2019-01-04T07:35:27.161Z,72.00
2019-01-04T07:37:56.109Z,72.00
2019-01-04T07:40:25.070Z,71.90
2019-01-04T07:42:54.351Z,71.90
2019-01-04T07:45:23.308Z,71.80
2019-01-04T07:47:52.461Z,71.60
2019-01-04T07:50:21.429Z,71.60
2019-01-04T07:52:50.470Z,71.60
2019-01-04T07:55:19.526Z,71.50
2019-01-04T07:57:48.569Z,71.50
2019-01-04T08:00:17.817Z,71.20
2019-01-04T08:02:48.317Z,71.20
2019-01-04T08:05:24.280Z,71.90
2019-01-04T08:07:53.811Z,71.10
2019-01-04T08:10:22.870Z,71.20
2019-01-04T08:12:52.184Z,71.10
2019-01-04T08:15:21.464Z,71.00
2019-01-04T08:17:50.500Z,71.00
2019-01-04T08:20:19.459Z,71.10
2019-01-04T08:22:48.532Z,71.00
2019-01-04T08:25:17.487Z,71.00
2019-01-04T08:27:46.484Z,71.00
2019-01-04T08:30:17.737Z,70.90
2019-01-04T08:32:46.773Z,70.90
2019-01-04T08:35:15.741Z,70.80
2019-01-04T08:37:44.741Z,70.90
2019-01-04T08:40:14.775Z,70.90
2019-01-04T08:42:43.845Z,70.90
2019-01-04T08:45:16.127Z,70.70
2019-01-04T08:47:45.284Z,70.80
2019-01-04T08:50:14.814Z,70.80
2019-01-04T08:52:44.056Z,70.70
2019-01-04T08:55:19.171Z,70.70
2019-01-04T08:57:48.346Z,70.60
2019-01-04T09:00:17.358Z,70.70
2019-01-04T09:02:46.425Z,70.70
2019-01-04T09:05:15.428Z,71.00
2019-01-04T09:07:44.475Z,71.00
2019-01-04T09:10:13.571Z,71.10
2019-01-04T09:12:42.613Z,71.20
2019-01-04T09:15:11.794Z,71.30
2019-01-04T09:17:40.842Z,71.50
2019-01-04T09:20:11.130Z,71.50
2019-01-04T09:22:40.945Z,71.50
2019-01-04T09:25:10.680Z,72.20
2019-01-04T09:27:39.860Z,71.50
2019-01-04T09:30:12.231Z,71.40
2019-01-04T09:32:41.260Z,71.30
2019-01-04T09:35:10.322Z,71.10
2019-01-04T09:37:39.335Z,71.50
2019-01-04T09:40:10.566Z,71.40
2019-01-04T09:42:40.170Z,71.60
2019-01-04T09:45:10.672Z,71.50
2019-01-04T09:47:39.771Z,71.40
2019-01-04T09:50:10.033Z,71.30
2019-01-04T09:52:39.072Z,71.30
2019-01-04T09:55:08.517Z,71.20
2019-01-04T09:57:37.585Z,71.20
2019-01-04T10:00:09.998Z,71.50
2019-01-04T10:02:39.432Z,71.80
2019-01-04T10:05:10.192Z,71.60
2019-01-04T10:07:39.269Z,71.70
2019-01-04T10:10:11.206Z,71.50
2019-01-04T10:12:40.302Z,71.60
2019-01-04T10:15:12.289Z,71.50
2019-01-04T10:17:41.477Z,71.40
2019-01-04T10:20:10.720Z,71.40
2019-01-04T10:22:39.769Z,71.40
2019-01-04T10:25:10.016Z,71.50
2019-01-04T10:27:38.906Z,71.50
2019-01-04T10:30:09.286Z,71.40
2019-01-04T10:32:38.542Z,71.40
2019-01-04T10:35:10.720Z,71.50
2019-01-04T10:37:38.440Z,71.70
2019-01-04T10:40:10.982Z,71.60
2019-01-04T10:42:38.211Z,71.60
2019-01-04T10:45:07.292Z,71.70
2019-01-04T10:47:36.357Z,71.90
2019-01-04T10:50:05.643Z,72.00
2019-01-04T10:52:34.884Z,71.90
2019-01-04T10:55:04.083Z,71.90
2019-01-04T10:57:33.121Z,71.50
2019-01-04T11:00:02.362Z,71.40
2019-01-04T11:02:31.381Z,71.50
2019-01-04T11:05:00.457Z,71.40
2019-01-04T11:07:29.755Z,71.50
2019-01-04T11:09:58.785Z,71.30
2019-01-04T11:12:28.140Z,71.30
2019-01-04T11:14:57.097Z,71.30
2019-01-04T11:17:26.146Z,71.00
2019-01-04T11:19:55.129Z,71.00
2019-01-04T11:22:53.138Z,70.90
2019-01-04T11:25:55.540Z,70.90
2019-01-04T11:28:57.139Z,70.90
2019-01-04T11:31:53.910Z,70.70
2019-01-04T11:35:16.508Z,70.60
2019-01-04T11:38:04.936Z,70.60
2019-01-04T11:41:03.514Z,71.10
2019-01-04T11:44:00.794Z,70.80
2019-01-04T11:46:59.658Z,71.00
2019-01-04T11:50:17.835Z,71.20
2019-01-04T11:52:54.412Z,71.80
2019-01-04T11:55:23.373Z,71.10
2019-01-04T11:57:53.826Z,71.10
2019-01-04T12:00:22.927Z,71.00
2019-01-04T12:02:55.807Z,71.20
2019-01-04T12:05:25.184Z,71.10
2019-01-04T12:07:54.169Z,71.10
2019-01-04T12:10:23.130Z,71.30
2019-01-04T12:12:52.437Z,71.60
2019-01-04T12:15:22.285Z,71.40
2019-01-04T12:17:52.752Z,71.50
2019-01-04T12:20:22.182Z,71.30
2019-01-04T12:22:51.556Z,71.50
2019-01-04T12:25:20.647Z,71.60
2019-01-04T12:27:50.275Z,71.70
2019-01-04T12:30:20.043Z,71.80
2019-01-04T12:32:50.580Z,71.60
2019-01-04T12:35:20.415Z,71.50
2019-01-04T12:37:49.440Z,72.00
2019-01-04T12:40:18.523Z,71.90
2019-01-04T12:42:47.508Z,71.90
2019-01-04T12:45:16.561Z,71.80
2019-01-04T12:47:45.862Z,71.90
2019-01-04T12:50:15.975Z,72.20
2019-01-04T12:52:44.928Z,71.80
2019-01-04T12:55:14.570Z,72.20
2019-01-04T12:57:43.851Z,71.40
2019-01-04T13:00:13.652Z,72.10
2019-01-04T13:02:43.197Z,72.00
2019-01-04T13:05:12.372Z,71.30
2019-01-04T13:07:41.759Z,71.00
2019-01-04T13:10:12.317Z,70.80
2019-01-04T13:12:42.088Z,70.70
2019-01-04T13:15:11.140Z,70.60
2019-01-04T13:17:40.137Z,70.60
2019-01-04T13:20:09.278Z,70.50
2019-01-04T13:22:38.445Z,71.00
2019-01-04T13:25:07.820Z,70.10
2019-01-04T13:27:36.698Z,70.30
2019-01-04T13:30:06.208Z,70.30
2019-01-04T13:32:35.172Z,70.40
2019-01-04T13:35:04.241Z,70.30
2019-01-04T13:37:33.659Z,70.20
2019-01-04T13:40:02.640Z,70.40
2019-01-04T13:42:31.597Z,70.20
2019-01-04T13:45:00.783Z,70.20
2019-01-04T13:47:32.349Z,70.40
2019-01-04T13:50:00.517Z,70.30
2019-01-04T13:52:29.634Z,69.80
2019-01-04T13:54:58.665Z,70.70
2019-01-04T13:57:27.754Z,70.50
2019-01-04T13:59:56.754Z,70.60
2019-01-04T14:02:25.834Z,70.50
2019-01-04T14:04:54.971Z,70.60
2019-01-04T14:07:23.949Z,70.40
2019-01-04T14:09:52.993Z,70.60
2019-01-04T14:12:22.102Z,70.50
2019-01-04T14:14:51.090Z,70.60
2019-01-04T14:17:21.053Z,70.50
2019-01-04T14:19:50.069Z,70.60
2019-01-04T14:22:18.978Z,70.90
2019-01-04T14:24:48.116Z,70.70
2019-01-04T14:27:17.108Z,70.70
2019-01-04T14:29:46.181Z,70.80
2019-01-04T14:32:15.148Z,70.90
2019-01-04T14:34:44.285Z,70.80
2019-01-04T14:37:13.456Z,70.70
2019-01-04T14:39:42.600Z,70.70
2019-01-04T14:42:11.655Z,70.70
2019-01-04T14:44:40.709Z,70.70
2019-01-04T14:47:09.814Z,70.90
2019-01-04T14:49:38.917Z,70.90
2019-01-04T14:52:07.965Z,70.70
2019-01-04T14:54:37.013Z,70.80
2019-01-04T14:57:05.976Z,70.70
2019-01-04T14:59:34.948Z,70.70
2019-01-04T15:02:04.029Z,70.70
2019-01-04T15:04:32.984Z,70.70
2019-01-04T15:07:01.963Z,70.60
2019-01-04T15:09:31.026Z,70.70
2019-01-04T15:12:00.063Z,70.30
2019-01-04T15:14:29.239Z,70.20
2019-01-04T15:16:58.500Z,70.20
2019-01-04T15:19:27.533Z,70.10
2019-01-04T15:21:56.705Z,70.00
2019-01-04T15:24:25.736Z,70.00
2019-01-04T15:26:54.777Z,69.70
2019-01-04T15:29:23.736Z,69.70
2019-01-04T15:31:53.040Z,69.60
2019-01-04T15:34:22.006Z,69.40
2019-01-04T15:36:51.054Z,69.40
2019-01-04T15:39:20.002Z,69.40
2019-01-04T15:41:49.321Z,69.40
2019-01-04T15:44:18.339Z,69.50
2019-01-04T15:46:47.414Z,69.40
2019-01-04T15:49:16.401Z,69.30
2019-01-04T15:51:45.524Z,69.40
2019-01-04T15:54:14.456Z,69.40
2019-01-04T15:56:43.847Z,69.40
2019-01-04T15:59:13.229Z,69.30
2019-01-04T16:01:42.264Z,69.20
2019-01-04T16:04:11.341Z,69.00
2019-01-04T16:06:40.319Z,69.00
2019-01-04T16:09:09.264Z,69.30
2019-01-04T16:11:38.237Z,69.00
2019-01-04T16:14:07.381Z,69.90
2019-01-04T16:16:36.392Z,69.50
2019-01-04T16:19:05.475Z,69.40
2019-01-04T16:21:34.423Z,69.30
2019-01-04T16:24:03.537Z,69.00
2019-01-04T16:26:32.577Z,69.10
2019-01-04T16:29:01.579Z,69.00
2019-01-04T16:31:30.641Z,69.00
2019-01-04T16:33:59.747Z,69.10
2019-01-04T16:36:28.735Z,69.00
2019-01-04T16:38:57.752Z,69.00
2019-01-04T16:41:26.837Z,69.40
2019-01-04T16:43:57.268Z,69.50
2019-01-04T16:46:28.381Z,69.50
2019-01-04T16:48:57.439Z,69.60
2019-01-04T16:51:26.484Z,69.70
2019-01-04T16:53:55.489Z,69.70
2019-01-04T16:56:24.562Z,69.70
2019-01-04T16:58:53.580Z,69.80
2019-01-04T17:01:23.564Z,69.80
2019-01-04T17:03:52.557Z,70.20
2019-01-04T17:06:21.596Z,70.10
2019-01-04T17:08:50.620Z,70.10
2019-01-04T17:11:19.748Z,70.20
2019-01-04T17:13:48.721Z,70.20
2019-01-04T17:16:17.608Z,70.30
2019-01-04T17:18:46.664Z,70.30
2019-01-04T17:21:15.738Z,70.20
2019-01-04T17:23:44.751Z,70.30
2019-01-04T17:26:13.709Z,70.30
2019-01-04T17:28:42.714Z,70.20
2019-01-04T17:31:11.604Z,70.30
2019-01-04T17:33:40.968Z,70.20
2019-01-04T17:36:10.014Z,70.20
2019-01-04T17:38:38.921Z,71.10
2019-01-04T17:41:07.820Z,70.30
2019-01-04T17:43:36.729Z,70.40
2019-01-04T17:46:05.846Z,70.30
2019-01-04T17:48:34.953Z,70.30
2019-01-04T17:51:04.061Z,70.30
2019-01-04T17:53:33.505Z,70.30
2019-01-04T17:56:02.592Z,70.30
2019-01-04T17:58:31.908Z,70.20
2019-01-04T18:01:01.236Z,70.20
2019-01-04T18:03:30.348Z,70.30
2019-01-04T18:05:59.377Z,70.30
2019-01-04T18:08:28.261Z,70.30
2019-01-04T18:10:57.627Z,70.40
2019-01-04T18:13:26.628Z,69.60
2019-01-04T18:15:55.659Z,70.90
2019-01-04T18:18:24.732Z,70.20
2019-01-04T18:20:53.845Z,70.30
2019-01-04T18:23:22.743Z,70.30
2019-01-04T18:25:51.911Z,70.40
2019-01-04T18:28:20.882Z,70.30
2019-01-04T18:30:50.140Z,70.30
2019-01-04T18:33:19.109Z,70.20
2019-01-04T18:35:48.174Z,70.30
2019-01-04T18:38:17.276Z,70.20
2019-01-04T18:40:46.316Z,70.40
2019-01-04T18:43:15.409Z,70.50
2019-01-04T18:45:44.473Z,70.30
2019-01-04T18:48:13.543Z,70.30
2019-01-04T18:50:42.624Z,70.20
2019-01-04T18:53:11.655Z,70.50
2019-01-04T18:55:41.064Z,70.40
2019-01-04T18:58:10.040Z,70.50
2019-01-04T19:00:39.136Z,70.30
2019-01-04T19:03:08.071Z,71.00
2019-01-04T19:05:37.291Z,70.30
2019-01-04T19:08:06.625Z,70.30
2019-01-04T19:10:35.721Z,70.30
2019-01-04T19:13:04.774Z,70.20
2019-01-04T19:15:33.932Z,70.30
2019-01-04T19:18:03.245Z,70.30
2019-01-04T19:20:32.528Z,70.30
2019-01-04T19:23:01.538Z,70.20
2019-01-04T19:25:30.585Z,70.30
2019-01-04T19:27:59.709Z,70.30
2019-01-04T19:30:28.678Z,70.20
2019-01-04T19:32:57.672Z,70.30
2019-01-04T19:35:26.726Z,70.10
2019-01-04T19:37:55.708Z,70.30
2019-01-04T19:40:24.778Z,70.30
2019-01-04T19:42:53.699Z,70.30
2019-01-04T19:45:23.000Z,70.30
2019-01-04T19:47:52.135Z,70.30
2019-01-04T19:50:22.516Z,70.30
2019-01-04T19:52:51.583Z,70.20
2019-01-04T19:55:20.621Z,70.20
2019-01-04T19:57:49.693Z,70.20
2019-01-04T20:00:18.743Z,70.30
2019-01-04T20:02:47.862Z,69.50
2019-01-04T20:05:18.889Z,70.20
2019-01-04T20:08:24.665Z,70.20
2019-01-04T20:12:01.657Z,70.20
2019-01-04T20:15:38.376Z,70.30
2019-01-04T20:18:28.006Z,70.30
2019-01-04T20:21:16.048Z,70.10
2019-01-04T20:24:03.910Z,70.10
2019-01-04T20:27:00.480Z,70.10
2019-01-04T20:30:03.557Z,70.10
2019-01-04T20:33:09.618Z,70.00
2019-01-04T20:36:05.005Z,69.80
2019-01-04T20:38:51.874Z,69.70
2019-01-04T20:41:38.371Z,69.90
2019-01-04T20:44:26.468Z,69.30
2019-01-04T20:47:24.573Z,69.40
2019-01-04T20:50:31.433Z,69.60
2019-01-04T20:53:12.989Z,69.80
2019-01-04T20:56:01.606Z,70.60
2019-01-04T20:58:58.036Z,69.80
2019-01-04T21:01:55.293Z,69.60
2019-01-04T21:04:42.085Z,69.30
2019-01-04T21:07:39.138Z,69.20
2019-01-04T21:10:31.096Z,69.50
2019-01-04T21:13:15.381Z,69.50
2019-01-04T21:16:05.978Z,69.30
2019-01-04T21:19:02.745Z,69.20
2019-01-04T21:21:51.777Z,69.20
2019-01-04T21:24:38.478Z,69.20
2019-01-04T21:27:41.830Z,69.20
2019-01-04T21:30:32.590Z,69.00
2019-01-04T21:33:23.334Z,69.10
2019-01-04T21:36:10.186Z,68.90
2019-01-04T21:39:04.189Z,68.90
2019-01-04T21:41:58.020Z,68.90
2019-01-04T21:44:47.991Z,68.90
2019-01-04T21:47:39.137Z,68.90
2019-01-04T21:50:33.300Z,68.90
2019-01-04T21:53:21.872Z,68.90
2019-01-04T21:56:17.898Z,68.90
2019-01-04T21:59:15.001Z,69.00
2019-01-04T22:02:01.999Z,69.00
2019-01-04T22:04:59.480Z,68.90
2019-01-04T22:07:46.619Z,68.90
2019-01-04T22:10:37.457Z,69.00
2019-01-04T22:13:18.802Z,68.90
2019-01-04T22:16:05.672Z,69.00
2019-01-04T22:19:04.107Z,69.00
2019-01-04T22:21:51.094Z,69.10
2019-01-04T22:24:57.149Z,69.30
2019-01-04T22:27:54.276Z,69.40
2019-01-04T22:30:42.372Z,69.30
2019-01-04T22:33:30.471Z,69.40
2019-01-04T22:36:18.649Z,69.40
2019-01-04T22:39:15.639Z,69.30
2019-01-04T22:42:02.699Z,69.30
2019-01-04T22:44:47.712Z,69.50
2019-01-04T22:47:38.431Z,69.60
2019-01-04T22:50:24.909Z,69.60
2019-01-04T22:53:21.841Z,69.60
2019-01-04T22:56:08.293Z,69.60
2019-01-04T22:58:59.132Z,69.80
2019-01-04T23:01:49.574Z,69.80
2019-01-04T23:04:55.633Z,69.80
2019-01-04T23:07:41.721Z,69.80
2019-01-04T23:10:29.393Z,69.90
2019-01-04T23:13:15.918Z,70.00
2019-01-04T23:15:58.139Z,70.00
2019-01-04T23:18:52.088Z,70.20
2019-01-04T23:22:13.557Z,70.10
2019-01-04T23:25:00.179Z,70.10
2019-01-04T23:27:47.084Z,70.30
2019-01-04T23:30:44.301Z,70.10
2019-01-04T23:33:38.289Z,70.20
2019-01-04T23:36:24.821Z,70.30
2019-01-04T23:39:11.385Z,70.30
2019-01-04T23:41:58.077Z,70.30
2019-01-04T23:44:56.134Z,70.40
2019-01-04T23:47:42.558Z,70.40
2019-01-04T23:50:42.577Z,70.40
2019-01-04T23:53:33.649Z,70.50
2019-01-04T23:56:18.729Z,70.50
2019-01-04T23:59:02.876Z,71.30
